DAL1748 KBOS-KDTW
Flight info
| Callsign | DAL1748 |
|---|---|
| Flight time | 1h 38m |
| Altitude | 38000 |
| Route | HYLND7 HYLND CAM Q822 GONZZ DONEO TPGUN2 |
| Aircraft | A320/M-SDE3FGHIRWY/LB1 |
Departure
| Time | 2026-05-04 11:39 |
|---|---|
| Airport | Boston Logan International Airport (KBOS) |
Arrival
| Time | 2026-05-04 13:17 |
|---|---|
| Airport | Detroit Metropolitan Wayne County Airport (KDTW) |
| Time | Latitude | Longitude | Altitude | Speed | Heading |
|---|---|---|---|---|---|
| 2026-05-04 10:58 | 42.36340 | -71.02118 | 26 ft | 0 kts | 17° |
| 2026-05-04 11:27 | 42.36288 | -71.02104 | 25 ft | 0 kts | 254° |
| 2026-05-04 11:31 | 42.35978 | -71.01954 | 29 ft | 12 kts | 121° |
| 2026-05-04 11:33 | 42.36312 | -71.01346 | 27 ft | 18 kts | 18° |
| 2026-05-04 11:33 | 42.36433 | -71.01286 | 28 ft | 19 kts | 20° |
| 2026-05-04 11:33 | 42.36549 | -71.01231 | 28 ft | 17 kts | 19° |
| 2026-05-04 11:34 | 42.36652 | -71.01181 | 30 ft | 15 kts | 20° |
| 2026-05-04 11:34 | 42.36745 | -71.01142 | 25 ft | 13 kts | 6° |
| 2026-05-04 11:34 | 42.36822 | -71.01186 | 28 ft | 11 kts | 318° |
| 2026-05-04 11:34 | 42.36880 | -71.01228 | 27 ft | 9 kts | 17° |
| 2026-05-04 11:35 | 42.36934 | -71.01169 | 26 ft | 11 kts | 40° |
| 2026-05-04 11:35 | 42.37007 | -71.01098 | 25 ft | 17 kts | 27° |
| 2026-05-04 11:35 | 42.37128 | -71.01018 | 25 ft | 21 kts | 27° |
| 2026-05-04 11:35 | 42.37259 | -71.00929 | 27 ft | 21 kts | 27° |
| 2026-05-04 11:36 | 42.37396 | -71.00863 | 27 ft | 21 kts | 19° |
| 2026-05-04 11:36 | 42.37537 | -71.00793 | 25 ft | 22 kts | 20° |
| 2026-05-04 11:36 | 42.37662 | -71.00729 | 28 ft | 19 kts | 19° |
| 2026-05-04 11:36 | 42.37779 | -71.00675 | 25 ft | 14 kts | 20° |
| 2026-05-04 11:37 | 42.37831 | -71.00642 | 27 ft | 7 kts | 41° |
| 2026-05-04 11:37 | 42.37838 | -71.00586 | 25 ft | 6 kts | 109° |
| 2026-05-04 11:37 | 42.37823 | -71.00529 | 28 ft | 9 kts | 109° |
| 2026-05-04 11:37 | 42.37787 | -71.00477 | 28 ft | 9 kts | 188° |
| 2026-05-04 11:38 | 42.37701 | -71.00518 | 28 ft | 24 kts | 199° |
| 2026-05-04 11:38 | 42.37301 | -71.00711 | 27 ft | 95 kts | 199° |
| 2026-05-04 11:38 | 42.36485 | -71.01106 | 30 ft | 150 kts | 199° |
| 2026-05-04 11:38 | 42.35469 | -71.01577 | 491 ft | 156 kts | 198° |
| 2026-05-04 11:39 | 42.34764 | -71.01768 | 937 ft | 158 kts | 180° |
| 2026-05-04 11:39 | 42.33720 | -71.01209 | 1637 ft | 174 kts | 147° |
| 2026-05-04 11:40 | 42.32191 | -70.88840 | 4394 ft | 294 kts | 76° |
| 2026-05-04 11:41 | 42.32611 | -70.86127 | 5251 ft | 297 kts | 75° |
| 2026-05-04 11:41 | 42.33029 | -70.83377 | 6116 ft | 300 kts | 75° |
| 2026-05-04 11:41 | 42.33475 | -70.80605 | 6918 ft | 303 kts | 70° |
| 2026-05-04 11:41 | 42.34322 | -70.78011 | 7722 ft | 302 kts | 53° |
| 2026-05-04 11:42 | 42.35632 | -70.75840 | 8511 ft | 298 kts | 37° |
| 2026-05-04 11:42 | 42.37301 | -70.74233 | 9286 ft | 295 kts | 21° |
| 2026-05-04 11:42 | 42.39220 | -70.73250 | 10093 ft | 295 kts | 10° |
| 2026-05-04 11:42 | 42.41243 | -70.72434 | 10436 ft | 314 kts | 9° |
| 2026-05-04 11:43 | 42.43420 | -70.71926 | 10618 ft | 327 kts | 356° |
| 2026-05-04 11:43 | 42.45700 | -70.72135 | 11120 ft | 329 kts | 342° |
| 2026-05-04 11:43 | 42.47870 | -70.73045 | 11827 ft | 325 kts | 330° |
| 2026-05-04 11:43 | 42.49919 | -70.74342 | 12587 ft | 325 kts | 329° |
| 2026-05-04 11:44 | 42.51926 | -70.75756 | 13330 ft | 324 kts | 321° |
| 2026-05-04 11:44 | 42.53658 | -70.77662 | 14039 ft | 320 kts | 310° |
| 2026-05-04 11:44 | 42.55039 | -70.80010 | 14667 ft | 318 kts | 300° |
| 2026-05-04 11:44 | 42.56259 | -70.82530 | 15273 ft | 321 kts | 300° |
| 2026-05-04 11:45 | 42.57494 | -70.85078 | 15856 ft | 325 kts | 301° |
| 2026-05-04 11:45 | 42.58747 | -70.87648 | 16451 ft | 328 kts | 301° |
| 2026-05-04 11:45 | 42.60021 | -70.90250 | 17000 ft | 333 kts | 301° |
| 2026-05-04 11:45 | 42.61305 | -70.92880 | 17584 ft | 336 kts | 301° |
| 2026-05-04 11:46 | 42.62607 | -70.95544 | 18172 ft | 340 kts | 301° |
| 2026-05-04 11:46 | 42.63916 | -70.98233 | 18693 ft | 343 kts | 301° |
| 2026-05-04 11:46 | 42.65237 | -71.00949 | 19195 ft | 346 kts | 301° |
| 2026-05-04 11:46 | 42.66570 | -71.03696 | 19706 ft | 349 kts | 301° |
| 2026-05-04 11:47 | 42.67911 | -71.06461 | 20216 ft | 352 kts | 301° |
| 2026-05-04 11:47 | 42.69246 | -71.09214 | 20717 ft | 355 kts | 301° |
| 2026-05-04 11:47 | 42.70612 | -71.12026 | 21221 ft | 358 kts | 301° |
| 2026-05-04 11:47 | 42.71987 | -71.14866 | 21723 ft | 361 kts | 301° |
| 2026-05-04 11:48 | 42.73369 | -71.17733 | 22210 ft | 364 kts | 301° |
| 2026-05-04 11:48 | 42.74760 | -71.20624 | 22688 ft | 367 kts | 301° |
| 2026-05-04 11:48 | 42.76163 | -71.23541 | 23150 ft | 370 kts | 301° |
| 2026-05-04 11:48 | 42.77439 | -71.26584 | 23547 ft | 371 kts | 292° |
| 2026-05-04 11:49 | 42.78291 | -71.29898 | 23916 ft | 372 kts | 283° |
| 2026-05-04 11:49 | 42.78742 | -71.33377 | 24288 ft | 374 kts | 278° |
| 2026-05-04 11:49 | 42.79133 | -71.36890 | 24671 ft | 376 kts | 278° |
| 2026-05-04 11:49 | 42.79526 | -71.40415 | 25042 ft | 377 kts | 278° |
| 2026-05-04 11:50 | 42.79922 | -71.43955 | 25407 ft | 379 kts | 278° |
| 2026-05-04 11:50 | 42.80320 | -71.47516 | 25766 ft | 381 kts | 278° |
| 2026-05-04 11:50 | 42.80720 | -71.51095 | 26121 ft | 382 kts | 278° |
| 2026-05-04 11:50 | 42.81116 | -71.54689 | 26470 ft | 384 kts | 278° |
| 2026-05-04 11:51 | 42.81512 | -71.58298 | 26819 ft | 386 kts | 278° |
| 2026-05-04 11:51 | 42.81909 | -71.61921 | 27155 ft | 387 kts | 278° |
| 2026-05-04 11:51 | 42.82308 | -71.65569 | 27501 ft | 389 kts | 278° |
| 2026-05-04 11:51 | 42.82701 | -71.69171 | 27823 ft | 390 kts | 278° |
| 2026-05-04 11:52 | 42.83098 | -71.72832 | 28134 ft | 392 kts | 278° |
| 2026-05-04 11:52 | 42.83497 | -71.76529 | 28441 ft | 393 kts | 278° |
| 2026-05-04 11:52 | 42.83894 | -71.80221 | 28731 ft | 395 kts | 278° |
| 2026-05-04 11:52 | 42.84295 | -71.83940 | 29016 ft | 396 kts | 278° |
| 2026-05-04 11:53 | 42.84696 | -71.87666 | 29290 ft | 397 kts | 278° |
| 2026-05-04 11:53 | 42.85096 | -71.91398 | 29539 ft | 399 kts | 278° |
| 2026-05-04 11:53 | 42.85496 | -71.95158 | 29763 ft | 402 kts | 278° |
| 2026-05-04 11:53 | 42.85896 | -71.98931 | 29994 ft | 404 kts | 278° |
| 2026-05-04 11:55 | 42.88689 | -72.25555 | 31768 ft | 404 kts | 278° |
| 2026-05-04 11:55 | 42.89082 | -72.29347 | 32033 ft | 404 kts | 277° |
| 2026-05-04 11:56 | 42.89473 | -72.33137 | 32292 ft | 404 kts | 277° |
| 2026-05-04 11:56 | 42.89858 | -72.36930 | 32557 ft | 404 kts | 277° |
| 2026-05-04 11:56 | 42.90237 | -72.40674 | 32820 ft | 403 kts | 277° |
| 2026-05-04 11:56 | 42.90628 | -72.44509 | 33088 ft | 403 kts | 277° |
| 2026-05-04 11:57 | 42.91011 | -72.48245 | 33347 ft | 403 kts | 277° |
| 2026-05-04 11:57 | 42.91405 | -72.52086 | 33615 ft | 403 kts | 277° |
| 2026-05-04 11:57 | 42.91791 | -72.55870 | 33873 ft | 403 kts | 277° |
| 2026-05-04 11:57 | 42.92177 | -72.59658 | 34087 ft | 403 kts | 277° |
| 2026-05-04 11:58 | 42.92559 | -72.63447 | 34248 ft | 404 kts | 277° |
| 2026-05-04 11:58 | 42.92939 | -72.67257 | 34412 ft | 405 kts | 277° |
| 2026-05-04 11:58 | 42.93318 | -72.71070 | 34604 ft | 406 kts | 277° |
| 2026-05-04 11:58 | 42.93692 | -72.74842 | 34788 ft | 406 kts | 277° |
| 2026-05-04 11:59 | 42.94069 | -72.78659 | 34975 ft | 406 kts | 277° |
| 2026-05-04 11:59 | 42.94446 | -72.82476 | 35143 ft | 406 kts | 277° |
| 2026-05-04 11:59 | 42.94820 | -72.86300 | 35319 ft | 406 kts | 277° |
| 2026-05-04 11:59 | 42.95191 | -72.90122 | 35490 ft | 406 kts | 277° |
| 2026-05-04 12:00 | 42.95563 | -72.93956 | 35657 ft | 406 kts | 277° |
| 2026-05-04 12:00 | 42.95934 | -72.97779 | 35822 ft | 406 kts | 277° |
| 2026-05-04 12:00 | 42.96308 | -73.01615 | 35886 ft | 409 kts | 277° |
| 2026-05-04 12:01 | 42.97055 | -73.09317 | 35886 ft | 409 kts | 277° |
| 2026-05-04 12:02 | 42.99483 | -73.36340 | 35921 ft | 409 kts | 272° |
| 2026-05-04 12:03 | 42.99675 | -73.44111 | 35918 ft | 409 kts | 272° |
| 2026-05-04 12:03 | 42.99864 | -73.51880 | 35914 ft | 409 kts | 272° |
| 2026-05-04 12:04 | 43.00048 | -73.59588 | 35915 ft | 409 kts | 272° |
| 2026-05-04 12:04 | 43.00229 | -73.67348 | 35923 ft | 408 kts | 272° |
| 2026-05-04 12:05 | 43.00405 | -73.75103 | 35913 ft | 408 kts | 272° |
| 2026-05-04 12:05 | 43.00578 | -73.82952 | 35892 ft | 414 kts | 272° |
| 2026-05-04 12:06 | 43.00747 | -73.90821 | 35892 ft | 418 kts | 272° |
| 2026-05-04 12:06 | 43.00907 | -73.98765 | 35893 ft | 418 kts | 272° |
| 2026-05-04 12:07 | 43.01062 | -74.06718 | 35890 ft | 418 kts | 272° |
| 2026-05-04 12:07 | 43.01214 | -74.14678 | 35886 ft | 419 kts | 272° |
| 2026-05-04 12:08 | 43.01358 | -74.22662 | 35895 ft | 419 kts | 272° |
| 2026-05-04 12:08 | 43.01561 | -74.30619 | 35895 ft | 419 kts | 274° |
| 2026-05-04 12:09 | 43.01946 | -74.38560 | 35884 ft | 419 kts | 275° |
| 2026-05-04 12:09 | 43.02365 | -74.46520 | 35885 ft | 420 kts | 274° |
| 2026-05-04 12:10 | 43.02735 | -74.54486 | 35887 ft | 420 kts | 274° |
| 2026-05-04 12:10 | 43.03066 | -74.62415 | 35891 ft | 420 kts | 274° |
| 2026-05-04 12:11 | 43.03389 | -74.70396 | 35895 ft | 420 kts | 274° |
| 2026-05-04 12:11 | 43.03727 | -74.78386 | 35897 ft | 421 kts | 274° |
| 2026-05-04 12:12 | 43.04063 | -74.86362 | 35900 ft | 421 kts | 274° |
| 2026-05-04 12:12 | 43.04395 | -74.94353 | 35900 ft | 421 kts | 274° |
| 2026-05-04 12:14 | 43.05622 | -75.26365 | 35896 ft | 422 kts | 273° |
| 2026-05-04 12:15 | 43.05903 | -75.34327 | 35896 ft | 421 kts | 273° |
| 2026-05-04 12:15 | 43.06129 | -75.42342 | 35900 ft | 421 kts | 272° |
| 2026-05-04 12:16 | 43.06334 | -75.50365 | 35890 ft | 421 kts | 273° |
| 2026-05-04 12:16 | 43.06540 | -75.58371 | 35900 ft | 421 kts | 273° |
| 2026-05-04 12:17 | 43.06752 | -75.66391 | 35895 ft | 421 kts | 273° |
| 2026-05-04 12:17 | 43.06961 | -75.74404 | 35888 ft | 421 kts | 273° |
| 2026-05-04 12:18 | 43.07156 | -75.82419 | 35883 ft | 421 kts | 273° |
| 2026-05-04 12:18 | 43.07351 | -75.90425 | 35876 ft | 421 kts | 273° |
| 2026-05-04 12:19 | 43.07543 | -75.98390 | 35874 ft | 421 kts | 273° |
| 2026-05-04 12:19 | 43.07723 | -76.06394 | 35872 ft | 421 kts | 273° |
| 2026-05-04 12:20 | 43.07901 | -76.14411 | 35875 ft | 422 kts | 273° |
| 2026-05-04 12:20 | 43.08047 | -76.21086 | 35878 ft | 422 kts | 273° |
| 2026-05-04 12:21 | 43.08215 | -76.29102 | 35879 ft | 422 kts | 273° |
| 2026-05-04 12:21 | 43.08373 | -76.37118 | 35879 ft | 422 kts | 273° |
| 2026-05-04 12:22 | 43.08525 | -76.45148 | 35879 ft | 421 kts | 273° |
| 2026-05-04 12:22 | 43.08673 | -76.53160 | 35872 ft | 421 kts | 274° |
| 2026-05-04 12:23 | 43.08814 | -76.61167 | 35861 ft | 421 kts | 274° |
| 2026-05-04 12:23 | 43.08880 | -76.69176 | 35867 ft | 422 kts | 268° |
| 2026-05-04 12:24 | 43.08211 | -76.77160 | 35857 ft | 423 kts | 266° |
| 2026-05-04 12:24 | 43.07518 | -76.85091 | 35866 ft | 423 kts | 266° |
| 2026-05-04 12:25 | 43.06809 | -76.93088 | 35853 ft | 422 kts | 266° |
| 2026-05-04 12:25 | 43.06103 | -77.01061 | 35860 ft | 422 kts | 266° |
| 2026-05-04 12:26 | 43.05387 | -77.09055 | 35864 ft | 422 kts | 266° |
| 2026-05-04 12:26 | 43.04664 | -77.17031 | 35874 ft | 422 kts | 266° |
| 2026-05-04 12:27 | 43.03937 | -77.24939 | 35862 ft | 422 kts | 266° |
| 2026-05-04 12:27 | 43.03205 | -77.32901 | 35871 ft | 421 kts | 266° |
| 2026-05-04 12:28 | 43.02470 | -77.40853 | 35871 ft | 421 kts | 266° |
| 2026-05-04 12:28 | 43.01729 | -77.48805 | 35868 ft | 421 kts | 266° |
| 2026-05-04 12:29 | 43.00978 | -77.56738 | 35852 ft | 421 kts | 266° |
| 2026-05-04 12:29 | 43.00226 | -77.64659 | 35854 ft | 420 kts | 266° |
| 2026-05-04 12:30 | 42.99478 | -77.72521 | 35853 ft | 420 kts | 266° |
| 2026-05-04 12:30 | 42.98716 | -77.80429 | 35854 ft | 420 kts | 266° |
| 2026-05-04 12:31 | 42.97956 | -77.88344 | 35832 ft | 420 kts | 266° |
| 2026-05-04 12:31 | 42.97187 | -77.96257 | 35824 ft | 420 kts | 266° |
| 2026-05-04 12:32 | 42.96002 | -78.08116 | 35835 ft | 420 kts | 266° |
| 2026-05-04 12:33 | 42.95218 | -78.16004 | 35834 ft | 419 kts | 266° |
| 2026-05-04 12:33 | 42.94433 | -78.23899 | 35832 ft | 419 kts | 266° |
| 2026-05-04 12:34 | 42.93641 | -78.31733 | 35828 ft | 419 kts | 266° |
| 2026-05-04 12:34 | 42.92842 | -78.39608 | 35826 ft | 419 kts | 266° |
| 2026-05-04 12:35 | 42.92043 | -78.47500 | 35830 ft | 419 kts | 265° |
| 2026-05-04 12:35 | 42.91233 | -78.55381 | 35828 ft | 419 kts | 265° |
| 2026-05-04 12:36 | 42.90415 | -78.63212 | 35827 ft | 419 kts | 265° |
| 2026-05-04 12:36 | 42.89590 | -78.71078 | 35815 ft | 419 kts | 265° |
| 2026-05-04 12:37 | 42.88765 | -78.78948 | 35819 ft | 419 kts | 265° |
| 2026-05-04 12:37 | 42.87928 | -78.86827 | 35802 ft | 420 kts | 265° |
| 2026-05-04 12:38 | 42.87090 | -78.94713 | 35811 ft | 420 kts | 265° |
| 2026-05-04 12:38 | 42.86252 | -79.02596 | 35815 ft | 420 kts | 265° |
| 2026-05-04 12:39 | 42.85401 | -79.10482 | 35808 ft | 421 kts | 265° |
| 2026-05-04 12:39 | 42.84543 | -79.18322 | 35806 ft | 421 kts | 265° |
| 2026-05-04 12:40 | 42.83679 | -79.26231 | 35818 ft | 421 kts | 265° |
| 2026-05-04 12:40 | 42.82808 | -79.34124 | 35812 ft | 421 kts | 265° |
| 2026-05-04 12:41 | 42.81932 | -79.42022 | 35814 ft | 422 kts | 265° |
| 2026-05-04 12:41 | 42.81049 | -79.49925 | 35816 ft | 422 kts | 265° |
| 2026-05-04 12:42 | 42.80162 | -79.57825 | 35822 ft | 422 kts | 265° |
| 2026-05-04 12:42 | 42.79266 | -79.65724 | 35830 ft | 422 kts | 265° |
| 2026-05-04 12:43 | 42.78370 | -79.73626 | 35833 ft | 422 kts | 265° |
| 2026-05-04 12:43 | 42.77649 | -79.81546 | 35828 ft | 421 kts | 268° |
| 2026-05-04 12:44 | 42.77054 | -79.89428 | 35819 ft | 421 kts | 268° |
| 2026-05-04 12:44 | 42.76420 | -79.97404 | 35829 ft | 422 kts | 267° |
| 2026-05-04 12:45 | 42.75755 | -80.05286 | 35835 ft | 422 kts | 267° |
| 2026-05-04 12:45 | 42.75065 | -80.13216 | 35835 ft | 422 kts | 267° |
| 2026-05-04 12:46 | 42.74372 | -80.21157 | 35824 ft | 422 kts | 267° |
| 2026-05-04 12:46 | 42.73686 | -80.29058 | 35833 ft | 422 kts | 267° |
| 2026-05-04 12:47 | 42.72987 | -80.37002 | 35833 ft | 422 kts | 267° |
| 2026-05-04 12:47 | 42.72513 | -80.44952 | 35839 ft | 421 kts | 270° |
| 2026-05-04 12:48 | 42.72252 | -80.52888 | 35832 ft | 420 kts | 271° |
| 2026-05-04 12:48 | 42.71976 | -80.60827 | 35832 ft | 420 kts | 270° |
| 2026-05-04 12:49 | 42.71628 | -80.68761 | 35825 ft | 420 kts | 270° |
| 2026-05-04 12:49 | 42.71260 | -80.76681 | 35825 ft | 420 kts | 270° |
| 2026-05-04 12:50 | 42.70896 | -80.84603 | 35818 ft | 419 kts | 270° |
| 2026-05-04 12:50 | 42.70713 | -80.88544 | 35699 ft | 414 kts | 270° |
| 2026-05-04 12:50 | 42.70532 | -80.92420 | 35427 ft | 409 kts | 270° |
| 2026-05-04 12:50 | 42.70353 | -80.96268 | 35178 ft | 407 kts | 270° |
| 2026-05-04 12:51 | 42.70175 | -81.00104 | 34930 ft | 407 kts | 270° |
| 2026-05-04 12:51 | 42.69998 | -81.03898 | 34585 ft | 407 kts | 270° |
| 2026-05-04 12:51 | 42.69815 | -81.07764 | 33649 ft | 413 kts | 271° |
| 2026-05-04 12:51 | 42.69626 | -81.11671 | 32653 ft | 416 kts | 270° |
| 2026-05-04 12:52 | 42.69433 | -81.15607 | 31685 ft | 418 kts | 270° |
| 2026-05-04 12:52 | 42.69236 | -81.19562 | 30755 ft | 420 kts | 270° |
| 2026-05-04 12:52 | 42.69036 | -81.23545 | 29653 ft | 424 kts | 269° |
| 2026-05-04 12:52 | 42.68835 | -81.27564 | 28518 ft | 427 kts | 269° |
| 2026-05-04 12:53 | 42.68633 | -81.31573 | 27940 ft | 418 kts | 269° |
| 2026-05-04 12:53 | 42.68430 | -81.35438 | 27785 ft | 402 kts | 269° |
| 2026-05-04 12:53 | 42.68175 | -81.39172 | 27493 ft | 391 kts | 268° |
| 2026-05-04 12:53 | 42.67873 | -81.42818 | 27026 ft | 386 kts | 267° |
| 2026-05-04 12:54 | 42.67550 | -81.46384 | 26464 ft | 383 kts | 266° |
| 2026-05-04 12:54 | 42.67220 | -81.49956 | 25907 ft | 379 kts | 266° |
| 2026-05-04 12:54 | 42.66896 | -81.53497 | 25348 ft | 376 kts | 266° |
| 2026-05-04 12:54 | 42.66581 | -81.57016 | 24795 ft | 373 kts | 266° |
| 2026-05-04 12:55 | 42.66274 | -81.60500 | 24317 ft | 368 kts | 267° |
| 2026-05-04 12:55 | 42.65975 | -81.63954 | 23787 ft | 366 kts | 267° |
| 2026-05-04 12:55 | 42.65682 | -81.67374 | 23206 ft | 365 kts | 267° |
| 2026-05-04 12:55 | 42.65391 | -81.70768 | 22772 ft | 358 kts | 267° |
| 2026-05-04 12:56 | 42.65102 | -81.74133 | 22157 ft | 358 kts | 266° |
| 2026-05-04 12:56 | 42.64811 | -81.77465 | 21659 ft | 354 kts | 266° |
| 2026-05-04 12:56 | 42.64519 | -81.80788 | 21166 ft | 351 kts | 266° |
| 2026-05-04 12:56 | 42.64230 | -81.84059 | 20717 ft | 347 kts | 266° |
| 2026-05-04 12:57 | 42.63944 | -81.87304 | 20207 ft | 345 kts | 266° |
| 2026-05-04 12:57 | 42.63658 | -81.90526 | 19732 ft | 343 kts | 266° |
| 2026-05-04 12:57 | 42.63377 | -81.93691 | 19270 ft | 340 kts | 266° |
| 2026-05-04 12:57 | 42.63092 | -81.96875 | 18807 ft | 338 kts | 266° |
| 2026-05-04 12:58 | 42.62806 | -82.00024 | 18356 ft | 335 kts | 266° |
| 2026-05-04 12:58 | 42.62521 | -82.03156 | 17881 ft | 333 kts | 266° |
| 2026-05-04 12:58 | 42.62240 | -82.06270 | 17364 ft | 331 kts | 265° |
| 2026-05-04 12:58 | 42.61960 | -82.09363 | 16863 ft | 329 kts | 265° |
| 2026-05-04 12:59 | 42.61681 | -82.12458 | 16369 ft | 327 kts | 265° |
| 2026-05-04 12:59 | 42.61406 | -82.15512 | 15892 ft | 325 kts | 265° |
| 2026-05-04 12:59 | 42.61129 | -82.18556 | 15445 ft | 324 kts | 265° |
| 2026-05-04 12:59 | 42.60851 | -82.21584 | 14976 ft | 322 kts | 264° |
| 2026-05-04 13:00 | 42.60575 | -82.24591 | 14536 ft | 320 kts | 264° |
| 2026-05-04 13:00 | 42.60301 | -82.27585 | 14094 ft | 318 kts | 264° |
| 2026-05-04 13:00 | 42.60025 | -82.30567 | 13653 ft | 317 kts | 264° |
| 2026-05-04 13:00 | 42.59749 | -82.33523 | 13165 ft | 315 kts | 264° |
| 2026-05-04 13:01 | 42.59472 | -82.36472 | 12678 ft | 314 kts | 264° |
| 2026-05-04 13:01 | 42.59198 | -82.39399 | 12203 ft | 312 kts | 264° |
| 2026-05-04 13:01 | 42.58814 | -82.42296 | 11717 ft | 311 kts | 255° |
| 2026-05-04 13:01 | 42.58053 | -82.44992 | 11253 ft | 309 kts | 249° |
| 2026-05-04 13:02 | 42.57224 | -82.47678 | 10768 ft | 308 kts | 249° |
| 2026-05-04 13:02 | 42.56402 | -82.50333 | 10501 ft | 300 kts | 249° |
| 2026-05-04 13:02 | 42.55610 | -82.52890 | 10365 ft | 288 kts | 249° |
| 2026-05-04 13:02 | 42.54851 | -82.55342 | 10240 ft | 276 kts | 249° |
| 2026-05-04 13:03 | 42.54115 | -82.57713 | 10015 ft | 269 kts | 249° |
| 2026-05-04 13:03 | 42.53389 | -82.60050 | 9730 ft | 269 kts | 249° |
| 2026-05-04 13:03 | 42.52900 | -82.61635 | 9429 ft | 270 kts | 249° |
| 2026-05-04 13:03 | 42.52177 | -82.63976 | 9027 ft | 268 kts | 249° |
| 2026-05-04 13:04 | 42.51466 | -82.66263 | 8659 ft | 265 kts | 249° |
| 2026-05-04 13:04 | 42.50753 | -82.68556 | 8294 ft | 263 kts | 249° |
| 2026-05-04 13:04 | 42.50037 | -82.70833 | 7925 ft | 261 kts | 248° |
| 2026-05-04 13:04 | 42.49318 | -82.73081 | 7551 ft | 259 kts | 248° |
| 2026-05-04 13:05 | 42.48743 | -82.75377 | 7185 ft | 257 kts | 260° |
| 2026-05-04 13:05 | 42.48719 | -82.77776 | 6959 ft | 255 kts | 278° |
| 2026-05-04 13:05 | 42.49269 | -82.80080 | 6948 ft | 260 kts | 295° |
| 2026-05-04 13:05 | 42.50138 | -82.82240 | 6944 ft | 262 kts | 296° |
| 2026-05-04 13:06 | 42.51014 | -82.84401 | 6942 ft | 262 kts | 296° |
| 2026-05-04 13:06 | 42.51890 | -82.86563 | 6943 ft | 262 kts | 296° |
| 2026-05-04 13:06 | 42.52764 | -82.88729 | 6942 ft | 261 kts | 296° |
| 2026-05-04 13:06 | 42.53633 | -82.90899 | 6941 ft | 261 kts | 295° |
| 2026-05-04 13:07 | 42.54497 | -82.93068 | 6936 ft | 261 kts | 294° |
| 2026-05-04 13:07 | 42.54929 | -82.95407 | 6779 ft | 256 kts | 264° |
| 2026-05-04 13:07 | 42.54282 | -82.97582 | 6581 ft | 250 kts | 229° |
| 2026-05-04 13:07 | 42.52853 | -82.98851 | 6412 ft | 245 kts | 206° |
| 2026-05-04 13:08 | 42.51273 | -82.99616 | 6228 ft | 238 kts | 201° |
| 2026-05-04 13:08 | 42.50716 | -82.99881 | 6161 ft | 233 kts | 207° |
| 2026-05-04 13:08 | 42.49592 | -83.00932 | 6050 ft | 221 kts | 232° |
| 2026-05-04 13:08 | 42.48957 | -83.02795 | 5978 ft | 220 kts | 263° |
| 2026-05-04 13:09 | 42.48974 | -83.04873 | 5982 ft | 222 kts | 271° |
| 2026-05-04 13:09 | 42.49050 | -83.06947 | 5975 ft | 215 kts | 271° |
| 2026-05-04 13:09 | 42.49015 | -83.08891 | 5962 ft | 199 kts | 257° |
| 2026-05-04 13:09 | 42.48562 | -83.10588 | 5927 ft | 190 kts | 241° |
| 2026-05-04 13:10 | 42.47868 | -83.12098 | 5747 ft | 188 kts | 239° |
| 2026-05-04 13:10 | 42.47173 | -83.13600 | 5616 ft | 188 kts | 239° |
| 2026-05-04 13:10 | 42.46390 | -83.15009 | 5497 ft | 189 kts | 224° |
| 2026-05-04 13:10 | 42.45316 | -83.16043 | 5363 ft | 190 kts | 215° |
| 2026-05-04 13:11 | 42.44181 | -83.16941 | 5237 ft | 189 kts | 213° |
| 2026-05-04 13:11 | 42.43032 | -83.17808 | 5115 ft | 188 kts | 212° |
| 2026-05-04 13:11 | 42.41886 | -83.18662 | 5017 ft | 188 kts | 212° |
| 2026-05-04 13:11 | 42.40739 | -83.19514 | 4801 ft | 187 kts | 212° |
| 2026-05-04 13:12 | 42.39598 | -83.20362 | 4573 ft | 187 kts | 212° |
| 2026-05-04 13:12 | 42.38461 | -83.21206 | 4323 ft | 186 kts | 212° |
| 2026-05-04 13:12 | 42.37330 | -83.22046 | 4075 ft | 185 kts | 212° |
| 2026-05-04 13:12 | 42.36199 | -83.22883 | 3828 ft | 185 kts | 212° |
| 2026-05-04 13:13 | 42.35085 | -83.23708 | 3601 ft | 184 kts | 212° |
| 2026-05-04 13:13 | 42.33965 | -83.24540 | 3360 ft | 182 kts | 212° |
| 2026-05-04 13:13 | 42.32853 | -83.25362 | 3122 ft | 181 kts | 212° |
| 2026-05-04 13:13 | 42.31783 | -83.26149 | 2887 ft | 168 kts | 212° |
| 2026-05-04 13:14 | 42.30799 | -83.26873 | 2667 ft | 153 kts | 213° |
| 2026-05-04 13:14 | 42.29911 | -83.27531 | 2508 ft | 139 kts | 213° |
| 2026-05-04 13:14 | 42.29085 | -83.28146 | 2322 ft | 133 kts | 214° |
| 2026-05-04 13:14 | 42.28276 | -83.28747 | 2141 ft | 131 kts | 214° |
| 2026-05-04 13:15 | 42.27483 | -83.29330 | 1966 ft | 128 kts | 213° |
| 2026-05-04 13:15 | 42.26696 | -83.29913 | 1780 ft | 131 kts | 212° |
| 2026-05-04 13:15 | 42.25905 | -83.30497 | 1583 ft | 128 kts | 212° |
| 2026-05-04 13:15 | 42.25112 | -83.31084 | 1398 ft | 132 kts | 210° |
| 2026-05-04 13:16 | 42.24301 | -83.31682 | 1217 ft | 133 kts | 210° |
| 2026-05-04 13:16 | 42.23494 | -83.32278 | 1038 ft | 132 kts | 209° |
| 2026-05-04 13:16 | 42.22690 | -83.32887 | 841 ft | 133 kts | 209° |
| 2026-05-04 13:16 | 42.21882 | -83.33477 | 666 ft | 131 kts | 208° |
| 2026-05-04 13:17 | 42.21163 | -83.34009 | 647 ft | 95 kts | 208° |
| 2026-05-04 13:17 | 42.20745 | -83.34317 | 646 ft | 43 kts | 212° |
| 2026-05-04 13:17 | 42.20592 | -83.34513 | 647 ft | 26 kts | 238° |
| 2026-05-04 13:17 | 42.20521 | -83.34670 | 648 ft | 18 kts | 238° |
| 2026-05-04 13:18 | 42.20435 | -83.34792 | 648 ft | 18 kts | 206° |
| 2026-05-04 13:18 | 42.20320 | -83.34869 | 649 ft | 19 kts | 207° |
| 2026-05-04 13:18 | 42.20205 | -83.34957 | 649 ft | 19 kts | 212° |
| 2026-05-04 13:18 | 42.20174 | -83.35114 | 647 ft | 19 kts | 269° |
| 2026-05-04 13:19 | 42.20174 | -83.35293 | 648 ft | 20 kts | 269° |
| 2026-05-04 13:19 | 42.20171 | -83.35481 | 647 ft | 20 kts | 268° |
| 2026-05-04 13:19 | 42.20168 | -83.35680 | 646 ft | 22 kts | 269° |
| 2026-05-04 13:19 | 42.20166 | -83.35869 | 646 ft | 20 kts | 267° |
| 2026-05-04 13:20 | 42.20161 | -83.36046 | 646 ft | 16 kts | 268° |
| 2026-05-04 13:20 | 42.20168 | -83.36199 | 646 ft | 17 kts | 281° |
| 2026-05-04 13:20 | 42.20190 | -83.36352 | 646 ft | 12 kts | 281° |
| 2026-05-04 13:20 | 42.20226 | -83.36412 | 646 ft | 8 kts | 2° |
| 2026-05-04 13:21 | 42.20278 | -83.36398 | 648 ft | 7 kts | 11° |
| 2026-05-04 13:21 | 42.20317 | -83.36377 | 647 ft | 5 kts | 26° |
| 2026-05-04 13:21 | 42.20347 | -83.36358 | 646 ft | 4 kts | 26° |
| 2026-05-04 13:21 | 42.20362 | -83.36332 | 648 ft | 3 kts | 84° |
| 2026-05-04 13:22 | 42.20354 | -83.36302 | 648 ft | 5 kts | 118° |
| 2026-05-04 13:22 | 42.20338 | -83.36263 | 648 ft | 2 kts | 118° |
| 2026-05-04 13:22 | 42.20333 | -83.36249 | 646 ft | 0 kts | 119° |
| 2026-05-04 13:24 | 42.20332 | -83.36249 | 646 ft | 0 kts | 118° |